createdAt,value
2019-03-05T00:01:27.119Z,2.9
2019-03-05T00:11:26.923Z,2.7
2019-03-05T00:21:25.841Z,2.3
2019-03-05T00:31:27.659Z,2.3
2019-03-05T00:41:26.771Z,2.6
2019-03-05T00:51:28.178Z,2.6
2019-03-05T01:01:26.636Z,2.3
2019-03-05T01:11:28.022Z,2.5
2019-03-05T01:21:26.067Z,1.8
2019-03-05T01:31:26.790Z,2.8
2019-03-05T01:41:27.214Z,2.5
2019-03-05T01:51:25.818Z,3.1
2019-03-05T02:01:27.250Z,3.7
2019-03-05T02:11:25.805Z,3.5
2019-03-05T02:21:27.222Z,4.8
2019-03-05T02:31:25.855Z,4.1
2019-03-05T02:41:26.774Z,4.5
2019-03-05T02:51:26.655Z,3.6
2019-03-05T03:01:26.857Z,3.8
2019-03-05T03:11:26.569Z,4.4
2019-03-05T03:21:26.504Z,3.5
2019-03-05T03:31:26.412Z,4.9
2019-03-05T03:41:27.551Z,5.6
2019-03-05T03:51:26.922Z,3.3
2019-03-05T04:01:26.830Z,3.9
2019-03-05T04:11:26.718Z,3.5
2019-03-05T04:21:26.717Z,3.9
2019-03-05T04:31:27.440Z,3.8
2019-03-05T04:41:26.249Z,4.3
2019-03-05T04:51:26.297Z,4.5
2019-03-05T05:01:26.049Z,4.0
2019-03-05T05:11:26.604Z,4.5
2019-03-05T05:21:27.097Z,4.8
2019-03-05T05:31:28.810Z,5.0
2019-03-05T05:41:27.245Z,5.1
2019-03-05T05:51:26.180Z,6.2
2019-03-05T06:01:26.337Z,5.6
2019-03-05T06:11:25.917Z,6.0
2019-03-05T06:21:26.678Z,5.9
2019-03-05T06:31:26.399Z,4.6
2019-03-05T06:41:26.020Z,4.3
2019-03-05T06:51:26.649Z,4.5
2019-03-05T07:01:27.550Z,3.4
2019-03-05T07:11:26.205Z,3.7
2019-03-05T07:21:26.532Z,3.2
2019-03-05T07:31:26.192Z,2.5
2019-03-05T07:41:29.237Z,2.7
2019-03-05T07:51:27.175Z,3.1
2019-03-05T08:01:27.442Z,2.5
2019-03-05T08:11:26.319Z,2.3
2019-03-05T08:21:27.247Z,2.6
2019-03-05T08:31:25.747Z,2.7
2019-03-05T08:41:27.100Z,2.8
2019-03-05T08:51:25.766Z,2.0
2019-03-05T09:01:27.996Z,2.1
2019-03-05T09:11:26.552Z,1.7
2019-03-05T09:21:26.747Z,2.0
2019-03-05T09:31:27.024Z,2.0
2019-03-05T09:41:28.118Z,2.5
2019-03-05T09:51:26.911Z,1.7
2019-03-05T10:01:27.031Z,2.5
2019-03-05T10:11:27.290Z,1.4
2019-03-05T10:21:27.238Z,2.1
2019-03-05T10:31:26.210Z,2.0
2019-03-05T10:41:26.249Z,2.1
2019-03-05T10:51:25.787Z,1.7
2019-03-05T11:01:27.475Z,1.2
2019-03-05T11:11:27.804Z,1.8
2019-03-05T11:21:26.586Z,1.8
2019-03-05T11:31:26.203Z,1.8
2019-03-05T11:41:28.114Z,1.8
2019-03-05T11:51:26.566Z,1.6
2019-03-05T12:01:26.519Z,1.7
2019-03-05T12:11:26.363Z,1.8
2019-03-05T12:21:27.362Z,2.1
2019-03-05T12:31:26.693Z,2.1
2019-03-05T12:41:26.334Z,2.0
2019-03-05T12:51:27.429Z,2.1
2019-03-05T13:01:26.917Z,1.6
2019-03-05T13:11:26.596Z,1.5
2019-03-05T13:21:27.333Z,1.9
2019-03-05T13:31:27.693Z,1.9
2019-03-05T13:41:26.558Z,2.1
2019-03-05T13:51:30.474Z,2.2
2019-03-05T14:01:28.420Z,2.4
2019-03-05T14:11:26.209Z,2.5
2019-03-05T14:21:26.362Z,2.1
2019-03-05T14:31:26.365Z,1.8
2019-03-05T14:41:26.826Z,2.8
2019-03-05T14:51:26.768Z,3.5
2019-03-05T15:01:26.502Z,3.1
2019-03-05T15:11:27.356Z,3.2
2019-03-05T15:21:26.931Z,4.3
2019-03-05T15:31:27.202Z,4.6
2019-03-05T15:41:25.902Z,4.4
2019-03-05T15:51:27.865Z,4.0
2019-03-05T16:01:25.656Z,4.5
2019-03-05T16:11:30.127Z,4.6
2019-03-05T16:21:27.812Z,4.0
2019-03-05T16:31:38.011Z,5.0
2019-03-05T16:41:26.613Z,4.4
2019-03-05T16:51:31.742Z,5.6
2019-03-05T17:01:27.824Z,5.5
2019-03-05T17:11:26.757Z,5.1
2019-03-05T17:21:28.019Z,4.8
2019-03-05T17:31:30.103Z,5.0
2019-03-05T17:41:26.206Z,5.8
2019-03-05T17:51:25.879Z,7.4
2019-03-05T18:01:26.761Z,6.6
2019-03-05T18:11:26.871Z,5.9
2019-03-05T18:21:26.733Z,5.9
2019-03-05T18:31:27.344Z,5.2
2019-03-05T18:41:26.478Z,5.2
2019-03-05T18:51:26.664Z,3.3
2019-03-05T19:01:27.146Z,3.7
2019-03-05T19:11:27.249Z,4.0
2019-03-05T19:21:26.939Z,5.3
2019-03-05T19:31:26.767Z,4.9
2019-03-05T19:41:27.138Z,5.4
2019-03-05T19:51:27.058Z,3.9
2019-03-05T20:01:25.960Z,3.7
2019-03-05T20:11:27.290Z,3.5
2019-03-05T20:21:26.782Z,5.3
2019-03-05T20:31:26.913Z,4.6
2019-03-05T20:41:26.761Z,4.3
2019-03-05T20:51:27.172Z,4.6
2019-03-05T21:01:25.646Z,4.6
2019-03-05T21:11:26.192Z,4.3
2019-03-05T21:21:26.091Z,4.9
2019-03-05T21:31:27.635Z,4.4
2019-03-05T21:41:26.097Z,5.9
2019-03-05T21:51:26.586Z,6.4
2019-03-05T22:01:27.305Z,5.7
2019-03-05T22:11:25.845Z,7.1
2019-03-05T22:21:26.172Z,6.5
2019-03-05T22:31:26.907Z,9.0
2019-03-05T22:41:28.755Z,10.1
2019-03-05T22:51:27.354Z,10.0
2019-03-05T23:01:27.579Z,9.9
2019-03-05T23:11:27.003Z,9.2
2019-03-05T23:21:26.409Z,10.7
2019-03-05T23:31:26.472Z,10.3
2019-03-05T23:41:26.079Z,8.3
2019-03-05T23:51:26.255Z,9.6
